sensor_id;sensor_type;location;lat;lon;timestamp;temperature;humidity
18335;DHT22;9293;49.524;10.964;2023-11-21T00:01:23;8.00;99.90
18335;DHT22;9293;49.524;10.964;2023-11-21T00:03:51;8.00;99.90
18335;DHT22;9293;49.524;10.964;2023-11-21T00:06:22;8.00;99.90
18335;DHT22;9293;49.524;10.964;2023-11-21T00:08:50;8.10;99.90
18335;DHT22;9293;49.524;10.964;2023-11-21T00:11:19;8.10;99.90
18335;DHT22;9293;49.524;10.964;2023-11-21T00:13:47;8.10;99.90
18335;DHT22;9293;49.524;10.964;2023-11-21T00:16:17;8.10;99.90
18335;DHT22;9293;49.524;10.964;2023-11-21T00:18:45;8.10;99.90
18335;DHT22;9293;49.524;10.964;2023-11-21T00:21:22;8.10;99.90
18335;DHT22;9293;49.524;10.964;2023-11-21T00:23:50;8.10;99.90
18335;DHT22;9293;49.524;10.964;2023-11-21T00:26:18;8.10;99.90
18335;DHT22;9293;49.524;10.964;2023-11-21T00:28:56;8.10;99.90
18335;DHT22;9293;49.524;10.964;2023-11-21T00:31:24;8.00;99.90
18335;DHT22;9293;49.524;10.964;2023-11-21T00:33:52;8.00;99.90
18335;DHT22;9293;49.524;10.964;2023-11-21T00:36:22;8.00;99.90
18335;DHT22;9293;49.524;10.964;2023-11-21T00:38:50;8.00;99.90
18335;DHT22;9293;49.524;10.964;2023-11-21T00:41:18;8.00;99.90
18335;DHT22;9293;49.524;10.964;2023-11-21T00:43:46;8.00;99.90
18335;DHT22;9293;49.524;10.964;2023-11-21T00:46:14;8.00;99.90
18335;DHT22;9293;49.524;10.964;2023-11-21T00:48:43;8.10;99.90
18335;DHT22;9293;49.524;10.964;2023-11-21T00:51:11;8.00;99.90
18335;DHT22;9293;49.524;10.964;2023-11-21T00:53:39;8.00;99.90
18335;DHT22;9293;49.524;10.964;2023-11-21T00:56:08;8.00;99.90
18335;DHT22;9293;49.524;10.964;2023-11-21T00:58:36;8.10;99.90
18335;DHT22;9293;49.524;10.964;2023-11-21T01:01:05;8.10;99.90
18335;DHT22;9293;49.524;10.964;2023-11-21T01:03:33;8.10;99.90
18335;DHT22;9293;49.524;10.964;2023-11-21T01:06:01;8.10;99.90
18335;DHT22;9293;49.524;10.964;2023-11-21T01:08:29;8.10;99.90
18335;DHT22;9293;49.524;10.964;2023-11-21T01:10:57;8.10;99.90
18335;DHT22;9293;49.524;10.964;2023-11-21T01:13:27;8.10;99.90
18335;DHT22;9293;49.524;10.964;2023-11-21T01:15:56;8.10;99.90
18335;DHT22;9293;49.524;10.964;2023-11-21T01:18:24;8.10;99.90
18335;DHT22;9293;49.524;10.964;2023-11-21T01:20:57;8.10;99.90
18335;DHT22;9293;49.524;10.964;2023-11-21T01:23:25;8.10;99.90
18335;DHT22;9293;49.524;10.964;2023-11-21T01:25:56;8.10;99.90
18335;DHT22;9293;49.524;10.964;2023-11-21T01:28:24;8.00;99.90
18335;DHT22;9293;49.524;10.964;2023-11-21T01:30:53;8.10;99.90
18335;DHT22;9293;49.524;10.964;2023-11-21T01:33:24;8.00;99.90
18335;DHT22;9293;49.524;10.964;2023-11-21T01:35:53;8.00;99.90
18335;DHT22;9293;49.524;10.964;2023-11-21T01:38:22;8.00;99.90
18335;DHT22;9293;49.524;10.964;2023-11-21T01:40:51;8.00;99.90
18335;DHT22;9293;49.524;10.964;2023-11-21T01:43:19;8.00;99.90
18335;DHT22;9293;49.524;10.964;2023-11-21T01:45:47;8.00;99.90
18335;DHT22;9293;49.524;10.964;2023-11-21T01:48:20;8.00;99.90
18335;DHT22;9293;49.524;10.964;2023-11-21T01:50:48;8.00;99.90
18335;DHT22;9293;49.524;10.964;2023-11-21T01:53:17;8.00;99.90
18335;DHT22;9293;49.524;10.964;2023-11-21T01:55:46;7.90;99.90
18335;DHT22;9293;49.524;10.964;2023-11-21T01:58:15;7.90;99.90
18335;DHT22;9293;49.524;10.964;2023-11-21T02:00:45;7.90;99.90
18335;DHT22;9293;49.524;10.964;2023-11-21T02:03:13;7.90;99.90
18335;DHT22;9293;49.524;10.964;2023-11-21T02:05:41;7.90;99.90
18335;DHT22;9293;49.524;10.964;2023-11-21T02:08:10;7.80;99.90
18335;DHT22;9293;49.524;10.964;2023-11-21T02:10:38;7.80;99.90
18335;DHT22;9293;49.524;10.964;2023-11-21T02:13:07;7.80;99.90
18335;DHT22;9293;49.524;10.964;2023-11-21T02:15:35;7.80;99.90
18335;DHT22;9293;49.524;10.964;2023-11-21T02:18:03;7.80;99.90
18335;DHT22;9293;49.524;10.964;2023-11-21T02:20:34;7.80;99.90
18335;DHT22;9293;49.524;10.964;2023-11-21T02:23:05;7.80;99.90
18335;DHT22;9293;49.524;10.964;2023-11-21T02:25:33;7.80;99.90
18335;DHT22;9293;49.524;10.964;2023-11-21T02:28:03;7.80;99.90
18335;DHT22;9293;49.524;10.964;2023-11-21T02:30:31;7.90;99.90
18335;DHT22;9293;49.524;10.964;2023-11-21T02:33:01;7.90;99.90
18335;DHT22;9293;49.524;10.964;2023-11-21T02:35:30;7.90;99.90
18335;DHT22;9293;49.524;10.964;2023-11-21T02:37:59;7.90;99.90
18335;DHT22;9293;49.524;10.964;2023-11-21T02:40:27;7.90;99.90
18335;DHT22;9293;49.524;10.964;2023-11-21T02:42:56;7.90;99.90
18335;DHT22;9293;49.524;10.964;2023-11-21T02:45:27;7.90;99.90
18335;DHT22;9293;49.524;10.964;2023-11-21T02:47:55;7.90;99.90
18335;DHT22;9293;49.524;10.964;2023-11-21T02:50:25;7.90;99.90
18335;DHT22;9293;49.524;10.964;2023-11-21T02:52:54;7.90;99.90
18335;DHT22;9293;49.524;10.964;2023-11-21T02:55:22;7.90;99.90
18335;DHT22;9293;49.524;10.964;2023-11-21T02:57:53;7.90;99.90
18335;DHT22;9293;49.524;10.964;2023-11-21T03:00:21;7.90;99.90
18335;DHT22;9293;49.524;10.964;2023-11-21T03:02:54;7.90;99.90
18335;DHT22;9293;49.524;10.964;2023-11-21T03:05:28;7.90;99.90
18335;DHT22;9293;49.524;10.964;2023-11-21T03:07:57;7.90;99.90
18335;DHT22;9293;49.524;10.964;2023-11-21T03:10:31;7.90;99.90
18335;DHT22;9293;49.524;10.964;2023-11-21T03:12:59;7.90;99.90
18335;DHT22;9293;49.524;10.964;2023-11-21T03:15:27;8.00;99.90
18335;DHT22;9293;49.524;10.964;2023-11-21T03:17:57;7.90;99.90
18335;DHT22;9293;49.524;10.964;2023-11-21T03:20:26;7.90;99.90
18335;DHT22;9293;49.524;10.964;2023-11-21T03:22:54;8.00;99.90
18335;DHT22;9293;49.524;10.964;2023-11-21T03:25:22;7.90;99.90
18335;DHT22;9293;49.524;10.964;2023-11-21T03:27:52;7.90;99.90
18335;DHT22;9293;49.524;10.964;2023-11-21T03:30:21;7.90;99.90
18335;DHT22;9293;49.524;10.964;2023-11-21T03:32:49;7.90;99.90
18335;DHT22;9293;49.524;10.964;2023-11-21T03:35:17;7.90;99.90
18335;DHT22;9293;49.524;10.964;2023-11-21T03:37:49;7.90;99.90
18335;DHT22;9293;49.524;10.964;2023-11-21T03:40:17;7.90;99.90
18335;DHT22;9293;49.524;10.964;2023-11-21T03:42:45;7.90;99.90
18335;DHT22;9293;49.524;10.964;2023-11-21T03:45:13;7.90;99.90
18335;DHT22;9293;49.524;10.964;2023-11-21T03:47:42;7.90;99.90
18335;DHT22;9293;49.524;10.964;2023-11-21T03:50:10;7.90;99.90
18335;DHT22;9293;49.524;10.964;2023-11-21T03:52:39;7.80;99.90
18335;DHT22;9293;49.524;10.964;2023-11-21T03:55:07;7.80;99.90
18335;DHT22;9293;49.524;10.964;2023-11-21T03:57:36;7.80;99.90
18335;DHT22;9293;49.524;10.964;2023-11-21T04:00:05;7.80;99.90
18335;DHT22;9293;49.524;10.964;2023-11-21T04:02:39;7.80;99.90
18335;DHT22;9293;49.524;10.964;2023-11-21T04:05:07;7.80;99.90
18335;DHT22;9293;49.524;10.964;2023-11-21T04:07:37;7.80;99.90
18335;DHT22;9293;49.524;10.964;2023-11-21T04:10:07;7.80;99.90
18335;DHT22;9293;49.524;10.964;2023-11-21T04:12:36;7.90;99.90
18335;DHT22;9293;49.524;10.964;2023-11-21T04:15:05;7.90;99.90
18335;DHT22;9293;49.524;10.964;2023-11-21T04:17:33;7.90;99.90
18335;DHT22;9293;49.524;10.964;2023-11-21T04:20:03;7.90;99.90
18335;DHT22;9293;49.524;10.964;2023-11-21T04:22:44;7.90;99.90
18335;DHT22;9293;49.524;10.964;2023-11-21T04:25:14;7.90;99.90
18335;DHT22;9293;49.524;10.964;2023-11-21T04:27:44;8.00;99.90
18335;DHT22;9293;49.524;10.964;2023-11-21T04:30:13;8.00;99.90
18335;DHT22;9293;49.524;10.964;2023-11-21T04:32:42;7.90;99.90
18335;DHT22;9293;49.524;10.964;2023-11-21T04:35:10;7.90;99.90
18335;DHT22;9293;49.524;10.964;2023-11-21T04:37:38;7.90;99.90
18335;DHT22;9293;49.524;10.964;2023-11-21T04:40:08;7.90;99.90
18335;DHT22;9293;49.524;10.964;2023-11-21T04:42:36;7.90;99.90
18335;DHT22;9293;49.524;10.964;2023-11-21T04:45:05;7.90;99.90
18335;DHT22;9293;49.524;10.964;2023-11-21T04:47:37;7.90;99.90
18335;DHT22;9293;49.524;10.964;2023-11-21T04:50:06;7.90;99.90
18335;DHT22;9293;49.524;10.964;2023-11-21T04:52:34;7.90;99.90
18335;DHT22;9293;49.524;10.964;2023-11-21T04:55:03;8.00;99.90
18335;DHT22;9293;49.524;10.964;2023-11-21T04:57:31;7.90;99.90
18335;DHT22;9293;49.524;10.964;2023-11-21T04:59:59;8.00;99.90
18335;DHT22;9293;49.524;10.964;2023-11-21T05:02:27;8.00;99.90
18335;DHT22;9293;49.524;10.964;2023-11-21T05:05:02;8.00;99.90
18335;DHT22;9293;49.524;10.964;2023-11-21T05:07:31;8.00;99.90
18335;DHT22;9293;49.524;10.964;2023-11-21T05:10:00;8.00;99.90
18335;DHT22;9293;49.524;10.964;2023-11-21T05:12:31;7.90;99.90
18335;DHT22;9293;49.524;10.964;2023-11-21T05:15:06;8.00;99.90
18335;DHT22;9293;49.524;10.964;2023-11-21T05:17:44;8.00;99.90
18335;DHT22;9293;49.524;10.964;2023-11-21T05:20:16;8.00;99.90
18335;DHT22;9293;49.524;10.964;2023-11-21T05:22:49;8.00;99.90
18335;DHT22;9293;49.524;10.964;2023-11-21T05:25:18;7.90;99.90
18335;DHT22;9293;49.524;10.964;2023-11-21T05:27:47;7.90;99.90
18335;DHT22;9293;49.524;10.964;2023-11-21T05:30:15;7.90;99.90
18335;DHT22;9293;49.524;10.964;2023-11-21T05:32:43;7.90;99.90
18335;DHT22;9293;49.524;10.964;2023-11-21T05:35:12;7.90;99.90
18335;DHT22;9293;49.524;10.964;2023-11-21T05:37:45;7.90;99.90
18335;DHT22;9293;49.524;10.964;2023-11-21T05:40:14;7.90;99.90
18335;DHT22;9293;49.524;10.964;2023-11-21T05:42:43;7.90;99.90
18335;DHT22;9293;49.524;10.964;2023-11-21T05:45:12;7.90;99.90
18335;DHT22;9293;49.524;10.964;2023-11-21T05:47:41;7.90;99.90
18335;DHT22;9293;49.524;10.964;2023-11-21T05:50:12;8.00;99.90
18335;DHT22;9293;49.524;10.964;2023-11-21T05:52:44;7.90;99.90
18335;DHT22;9293;49.524;10.964;2023-11-21T05:55:13;7.90;99.90
18335;DHT22;9293;49.524;10.964;2023-11-21T05:57:42;7.90;99.90
18335;DHT22;9293;49.524;10.964;2023-11-21T06:00:13;7.90;99.90
18335;DHT22;9293;49.524;10.964;2023-11-21T06:02:53;7.90;99.90
18335;DHT22;9293;49.524;10.964;2023-11-21T06:05:24;7.90;99.90
18335;DHT22;9293;49.524;10.964;2023-11-21T06:07:56;7.90;99.90
18335;DHT22;9293;49.524;10.964;2023-11-21T06:10:30;7.90;99.90
18335;DHT22;9293;49.524;10.964;2023-11-21T06:12:58;7.90;99.90
18335;DHT22;9293;49.524;10.964;2023-11-21T06:15:30;8.00;99.90
18335;DHT22;9293;49.524;10.964;2023-11-21T06:17:58;7.90;99.90
18335;DHT22;9293;49.524;10.964;2023-11-21T06:20:27;7.90;99.90
18335;DHT22;9293;49.524;10.964;2023-11-21T06:22:56;8.00;99.90
18335;DHT22;9293;49.524;10.964;2023-11-21T06:25:24;7.90;99.90
18335;DHT22;9293;49.524;10.964;2023-11-21T06:27:52;8.00;99.90
18335;DHT22;9293;49.524;10.964;2023-11-21T06:30:22;8.00;99.90
18335;DHT22;9293;49.524;10.964;2023-11-21T06:32:51;8.00;99.90
18335;DHT22;9293;49.524;10.964;2023-11-21T06:35:20;8.00;99.90
18335;DHT22;9293;49.524;10.964;2023-11-21T06:37:49;8.00;99.90
18335;DHT22;9293;49.524;10.964;2023-11-21T06:40:18;8.00;99.90
18335;DHT22;9293;49.524;10.964;2023-11-21T06:42:47;8.00;99.90
18335;DHT22;9293;49.524;10.964;2023-11-21T06:45:16;8.00;99.90
18335;DHT22;9293;49.524;10.964;2023-11-21T06:47:44;8.00;99.90
18335;DHT22;9293;49.524;10.964;2023-11-21T06:50:13;8.00;99.90
18335;DHT22;9293;49.524;10.964;2023-11-21T06:52:42;8.00;99.90
18335;DHT22;9293;49.524;10.964;2023-11-21T06:55:11;7.90;99.90
18335;DHT22;9293;49.524;10.964;2023-11-21T06:57:39;8.00;99.90
18335;DHT22;9293;49.524;10.964;2023-11-21T07:00:08;8.00;99.90
18335;DHT22;9293;49.524;10.964;2023-11-21T07:02:37;8.00;99.90
18335;DHT22;9293;49.524;10.964;2023-11-21T07:05:06;8.10;99.90
18335;DHT22;9293;49.524;10.964;2023-11-21T07:07:35;8.10;99.90
18335;DHT22;9293;49.524;10.964;2023-11-21T07:10:05;8.10;99.90
18335;DHT22;9293;49.524;10.964;2023-11-21T07:12:33;8.20;99.90
18335;DHT22;9293;49.524;10.964;2023-11-21T07:15:03;8.20;99.90
18335;DHT22;9293;49.524;10.964;2023-11-21T07:17:33;8.20;99.90
18335;DHT22;9293;49.524;10.964;2023-11-21T07:20:07;8.20;99.90
18335;DHT22;9293;49.524;10.964;2023-11-21T07:22:35;8.20;99.90
18335;DHT22;9293;49.524;10.964;2023-11-21T07:25:04;8.20;99.90
18335;DHT22;9293;49.524;10.964;2023-11-21T07:27:33;8.20;99.90
18335;DHT22;9293;49.524;10.964;2023-11-21T07:30:11;8.20;99.90
18335;DHT22;9293;49.524;10.964;2023-11-21T07:32:41;8.20;99.90
18335;DHT22;9293;49.524;10.964;2023-11-21T07:35:09;8.20;99.90
18335;DHT22;9293;49.524;10.964;2023-11-21T07:37:37;8.30;99.90
18335;DHT22;9293;49.524;10.964;2023-11-21T07:40:06;8.30;99.90
18335;DHT22;9293;49.524;10.964;2023-11-21T07:42:36;8.30;99.90
18335;DHT22;9293;49.524;10.964;2023-11-21T07:45:05;8.30;99.90
18335;DHT22;9293;49.524;10.964;2023-11-21T07:47:34;8.30;99.90
18335;DHT22;9293;49.524;10.964;2023-11-21T07:50:03;8.30;99.90
18335;DHT22;9293;49.524;10.964;2023-11-21T07:52:32;8.40;99.90
18335;DHT22;9293;49.524;10.964;2023-11-21T07:55:00;8.40;99.90
18335;DHT22;9293;49.524;10.964;2023-11-21T07:57:29;8.40;99.90
18335;DHT22;9293;49.524;10.964;2023-11-21T07:59:57;8.40;99.90
18335;DHT22;9293;49.524;10.964;2023-11-21T08:02:26;8.40;99.90
18335;DHT22;9293;49.524;10.964;2023-11-21T08:04:55;8.40;99.90
18335;DHT22;9293;49.524;10.964;2023-11-21T08:07:24;8.40;99.90
18335;DHT22;9293;49.524;10.964;2023-11-21T08:09:54;8.40;99.90
18335;DHT22;9293;49.524;10.964;2023-11-21T08:12:22;8.50;99.90
18335;DHT22;9293;49.524;10.964;2023-11-21T08:14:50;8.50;99.90
18335;DHT22;9293;49.524;10.964;2023-11-21T08:17:18;8.50;99.90
18335;DHT22;9293;49.524;10.964;2023-11-21T08:19:48;8.50;99.90
18335;DHT22;9293;49.524;10.964;2023-11-21T08:22:17;8.50;99.90
18335;DHT22;9293;49.524;10.964;2023-11-21T08:24:46;8.50;99.90
18335;DHT22;9293;49.524;10.964;2023-11-21T08:27:14;8.60;99.90
18335;DHT22;9293;49.524;10.964;2023-11-21T08:29:44;8.60;99.90
18335;DHT22;9293;49.524;10.964;2023-11-21T08:32:12;8.60;99.90
18335;DHT22;9293;49.524;10.964;2023-11-21T08:34:40;8.60;99.90
18335;DHT22;9293;49.524;10.964;2023-11-21T08:37:14;8.70;99.90
18335;DHT22;9293;49.524;10.964;2023-11-21T08:39:44;8.70;99.90
18335;DHT22;9293;49.524;10.964;2023-11-21T08:42:12;8.70;99.90
18335;DHT22;9293;49.524;10.964;2023-11-21T08:44:41;8.80;99.90
18335;DHT22;9293;49.524;10.964;2023-11-21T08:47:09;8.80;99.90
18335;DHT22;9293;49.524;10.964;2023-11-21T08:49:39;8.90;99.90
18335;DHT22;9293;49.524;10.964;2023-11-21T08:52:09;8.90;99.90
18335;DHT22;9293;49.524;10.964;2023-11-21T08:54:40;8.80;99.90
18335;DHT22;9293;49.524;10.964;2023-11-21T08:57:09;8.80;99.90
18335;DHT22;9293;49.524;10.964;2023-11-21T08:59:37;8.90;99.90
18335;DHT22;9293;49.524;10.964;2023-11-21T09:02:06;8.90;99.90
18335;DHT22;9293;49.524;10.964;2023-11-21T09:04:36;9.00;99.90
18335;DHT22;9293;49.524;10.964;2023-11-21T09:07:06;9.00;99.90
18335;DHT22;9293;49.524;10.964;2023-11-21T09:09:34;9.00;99.90
18335;DHT22;9293;49.524;10.964;2023-11-21T09:12:02;9.10;99.90
18335;DHT22;9293;49.524;10.964;2023-11-21T09:14:31;9.10;99.90
18335;DHT22;9293;49.524;10.964;2023-11-21T09:16:59;9.00;99.90
18335;DHT22;9293;49.524;10.964;2023-11-21T09:19:29;9.10;99.90
18335;DHT22;9293;49.524;10.964;2023-11-21T09:21:57;9.10;99.90
18335;DHT22;9293;49.524;10.964;2023-11-21T09:24:25;9.20;99.90
18335;DHT22;9293;49.524;10.964;2023-11-21T09:26:53;9.30;99.90
18335;DHT22;9293;49.524;10.964;2023-11-21T09:29:22;9.30;99.90
18335;DHT22;9293;49.524;10.964;2023-11-21T09:31:50;9.40;99.90
18335;DHT22;9293;49.524;10.964;2023-11-21T09:34:22;9.40;99.90
18335;DHT22;9293;49.524;10.964;2023-11-21T09:36:51;9.50;99.90
18335;DHT22;9293;49.524;10.964;2023-11-21T09:39:19;9.50;99.90
18335;DHT22;9293;49.524;10.964;2023-11-21T09:41:52;9.60;99.90
18335;DHT22;9293;49.524;10.964;2023-11-21T09:47:33;9.40;99.90
18335;DHT22;9293;49.524;10.964;2023-11-21T09:50:05;9.50;99.90
18335;DHT22;9293;49.524;10.964;2023-11-21T09:53:05;9.50;99.90
18335;DHT22;9293;49.524;10.964;2023-11-21T09:55:39;9.50;99.90
18335;DHT22;9293;49.524;10.964;2023-11-21T09:58:10;9.40;99.90
18335;DHT22;9293;49.524;10.964;2023-11-21T10:00:46;9.40;99.90
18335;DHT22;9293;49.524;10.964;2023-11-21T10:03:17;9.40;99.90
18335;DHT22;9293;49.524;10.964;2023-11-21T10:05:48;9.50;99.90
18335;DHT22;9293;49.524;10.964;2023-11-21T10:08:20;9.50;99.90
18335;DHT22;9293;49.524;10.964;2023-11-21T10:10:51;9.60;99.90
18335;DHT22;9293;49.524;10.964;2023-11-21T10:13:21;9.70;99.90
18335;DHT22;9293;49.524;10.964;2023-11-21T10:15:50;9.90;99.90
18335;DHT22;9293;49.524;10.964;2023-11-21T10:18:19;10.00;99.90
18335;DHT22;9293;49.524;10.964;2023-11-21T10:20:47;10.20;99.90
18335;DHT22;9293;49.524;10.964;2023-11-21T10:23:21;10.30;99.90
18335;DHT22;9293;49.524;10.964;2023-11-21T10:25:51;10.40;99.90
18335;DHT22;9293;49.524;10.964;2023-11-21T10:28:21;10.50;99.90
18335;DHT22;9293;49.524;10.964;2023-11-21T10:30:49;10.40;99.90
18335;DHT22;9293;49.524;10.964;2023-11-21T10:33:27;10.50;99.90
18335;DHT22;9293;49.524;10.964;2023-11-21T10:35:56;10.50;99.90
18335;DHT22;9293;49.524;10.964;2023-11-21T10:38:24;10.60;99.90
18335;DHT22;9293;49.524;10.964;2023-11-21T10:40:55;10.60;99.90
18335;DHT22;9293;49.524;10.964;2023-11-21T10:43:26;10.50;99.90
18335;DHT22;9293;49.524;10.964;2023-11-21T10:45:57;10.50;99.90
18335;DHT22;9293;49.524;10.964;2023-11-21T10:48:32;10.50;99.90
18335;DHT22;9293;49.524;10.964;2023-11-21T10:51:06;10.50;99.90
18335;DHT22;9293;49.524;10.964;2023-11-21T10:53:41;10.40;99.90
18335;DHT22;9293;49.524;10.964;2023-11-21T10:56:14;10.30;99.90
18335;DHT22;9293;49.524;10.964;2023-11-21T10:58:50;10.20;99.90
18335;DHT22;9293;49.524;10.964;2023-11-21T11:01:20;10.10;99.90
18335;DHT22;9293;49.524;10.964;2023-11-21T11:03:52;10.00;99.90
18335;DHT22;9293;49.524;10.964;2023-11-21T11:06:24;10.00;99.90
18335;DHT22;9293;49.524;10.964;2023-11-21T11:08:54;10.10;99.90
18335;DHT22;9293;49.524;10.964;2023-11-21T11:11:22;10.10;99.90
18335;DHT22;9293;49.524;10.964;2023-11-21T11:13:51;10.10;99.90
18335;DHT22;9293;49.524;10.964;2023-11-21T11:16:21;10.10;99.90
18335;DHT22;9293;49.524;10.964;2023-11-21T11:18:50;10.00;99.90
18335;DHT22;9293;49.524;10.964;2023-11-21T11:21:26;10.00;99.90
18335;DHT22;9293;49.524;10.964;2023-11-21T11:24:03;10.10;99.90
18335;DHT22;9293;49.524;10.964;2023-11-21T11:26:56;10.10;99.90
18335;DHT22;9293;49.524;10.964;2023-11-21T11:29:40;10.00;99.90
18335;DHT22;9293;49.524;10.964;2023-11-21T11:35:05;10.10;99.90
18335;DHT22;9293;49.524;10.964;2023-11-21T11:37:39;10.20;99.90
18335;DHT22;9293;49.524;10.964;2023-11-21T11:40:07;10.20;99.90
18335;DHT22;9293;49.524;10.964;2023-11-21T11:42:36;10.30;99.90
18335;DHT22;9293;49.524;10.964;2023-11-21T11:45:25;10.40;99.90
18335;DHT22;9293;49.524;10.964;2023-11-21T11:48:03;10.40;99.90
18335;DHT22;9293;49.524;10.964;2023-11-21T11:50:31;10.30;99.90
18335;DHT22;9293;49.524;10.964;2023-11-21T11:53:14;10.40;99.90
18335;DHT22;9293;49.524;10.964;2023-11-21T11:55:43;10.50;99.90
18335;DHT22;9293;49.524;10.964;2023-11-21T11:58:12;10.40;99.90
18335;DHT22;9293;49.524;10.964;2023-11-21T12:00:40;10.30;99.90
18335;DHT22;9293;49.524;10.964;2023-11-21T12:03:10;10.30;99.90
18335;DHT22;9293;49.524;10.964;2023-11-21T12:05:43;10.30;99.90
18335;DHT22;9293;49.524;10.964;2023-11-21T12:08:17;10.30;99.90
18335;DHT22;9293;49.524;10.964;2023-11-21T12:10:45;10.30;99.90
18335;DHT22;9293;49.524;10.964;2023-11-21T12:13:14;10.20;99.90
18335;DHT22;9293;49.524;10.964;2023-11-21T12:15:42;10.30;99.90
18335;DHT22;9293;49.524;10.964;2023-11-21T12:18:11;10.30;99.90
18335;DHT22;9293;49.524;10.964;2023-11-21T12:20:39;10.30;99.90
18335;DHT22;9293;49.524;10.964;2023-11-21T12:23:09;10.40;99.90
18335;DHT22;9293;49.524;10.964;2023-11-21T12:25:38;10.40;99.90
18335;DHT22;9293;49.524;10.964;2023-11-21T12:28:07;10.40;99.90
18335;DHT22;9293;49.524;10.964;2023-11-21T12:30:36;10.40;99.90
18335;DHT22;9293;49.524;10.964;2023-11-21T12:33:06;10.40;99.90
18335;DHT22;9293;49.524;10.964;2023-11-21T12:35:35;10.40;99.90
18335;DHT22;9293;49.524;10.964;2023-11-21T12:38:04;10.40;99.90
18335;DHT22;9293;49.524;10.964;2023-11-21T12:40:37;10.40;99.90
18335;DHT22;9293;49.524;10.964;2023-11-21T12:43:07;10.40;99.90
18335;DHT22;9293;49.524;10.964;2023-11-21T12:45:35;10.50;99.90
18335;DHT22;9293;49.524;10.964;2023-11-21T12:48:06;10.60;99.90
18335;DHT22;9293;49.524;10.964;2023-11-21T12:50:39;10.60;99.90
18335;DHT22;9293;49.524;10.964;2023-11-21T12:53:09;10.60;99.90
18335;DHT22;9293;49.524;10.964;2023-11-21T12:55:40;10.60;99.90
18335;DHT22;9293;49.524;10.964;2023-11-21T12:58:10;10.60;99.90
18335;DHT22;9293;49.524;10.964;2023-11-21T13:00:46;10.60;99.90
18335;DHT22;9293;49.524;10.964;2023-11-21T13:03:18;10.60;99.90
18335;DHT22;9293;49.524;10.964;2023-11-21T13:05:53;10.60;99.90
18335;DHT22;9293;49.524;10.964;2023-11-21T13:08:26;10.60;99.90
18335;DHT22;9293;49.524;10.964;2023-11-21T13:10:56;10.60;99.90
18335;DHT22;9293;49.524;10.964;2023-11-21T13:13:28;10.60;99.90
18335;DHT22;9293;49.524;10.964;2023-11-21T13:18:29;10.60;99.90
18335;DHT22;9293;49.524;10.964;2023-11-21T13:21:02;10.60;99.90
18335;DHT22;9293;49.524;10.964;2023-11-21T13:23:43;10.60;99.90
18335;DHT22;9293;49.524;10.964;2023-11-21T13:26:14;10.60;99.90
18335;DHT22;9293;49.524;10.964;2023-11-21T13:28:43;10.50;99.90
18335;DHT22;9293;49.524;10.964;2023-11-21T13:31:18;10.40;99.90
18335;DHT22;9293;49.524;10.964;2023-11-21T13:33:57;10.20;99.90
18335;DHT22;9293;49.524;10.964;2023-11-21T13:36:32;10.10;99.90
18335;DHT22;9293;49.524;10.964;2023-11-21T13:39:03;10.10;99.90
18335;DHT22;9293;49.524;10.964;2023-11-21T13:41:43;10.10;99.90
18335;DHT22;9293;49.524;10.964;2023-11-21T13:44:14;10.10;99.90
18335;DHT22;9293;49.524;10.964;2023-11-21T13:46:48;10.10;99.90
18335;DHT22;9293;49.524;10.964;2023-11-21T13:49:16;10.10;99.90
18335;DHT22;9293;49.524;10.964;2023-11-21T13:51:44;10.10;99.90
18335;DHT22;9293;49.524;10.964;2023-11-21T13:54:15;10.10;99.90
18335;DHT22;9293;49.524;10.964;2023-11-21T13:56:46;10.20;99.90
18335;DHT22;9293;49.524;10.964;2023-11-21T13:59:14;10.30;99.90
18335;DHT22;9293;49.524;10.964;2023-11-21T14:01:51;10.40;99.90
18335;DHT22;9293;49.524;10.964;2023-11-21T14:04:29;10.50;99.90
18335;DHT22;9293;49.524;10.964;2023-11-21T14:06:59;10.50;99.90
18335;DHT22;9293;49.524;10.964;2023-11-21T14:09:38;10.60;99.90
18335;DHT22;9293;49.524;10.964;2023-11-21T14:12:11;10.60;99.90
18335;DHT22;9293;49.524;10.964;2023-11-21T14:14:41;10.60;99.90
18335;DHT22;9293;49.524;10.964;2023-11-21T14:17:09;10.60;99.90
18335;DHT22;9293;49.524;10.964;2023-11-21T14:19:38;10.50;99.90
18335;DHT22;9293;49.524;10.964;2023-11-21T14:22:11;10.50;99.90
18335;DHT22;9293;49.524;10.964;2023-11-21T14:24:40;10.40;99.90
18335;DHT22;9293;49.524;10.964;2023-11-21T14:27:14;10.40;99.90
18335;DHT22;9293;49.524;10.964;2023-11-21T14:29:42;10.50;99.90
18335;DHT22;9293;49.524;10.964;2023-11-21T14:32:12;10.50;99.90
18335;DHT22;9293;49.524;10.964;2023-11-21T14:34:42;10.40;99.90
18335;DHT22;9293;49.524;10.964;2023-11-21T14:37:13;10.40;99.90
18335;DHT22;9293;49.524;10.964;2023-11-21T14:39:41;10.40;99.90
18335;DHT22;9293;49.524;10.964;2023-11-21T14:42:14;10.40;99.90
18335;DHT22;9293;49.524;10.964;2023-11-21T14:44:44;10.40;99.90
18335;DHT22;9293;49.524;10.964;2023-11-21T14:47:12;10.30;99.90
18335;DHT22;9293;49.524;10.964;2023-11-21T14:49:44;10.30;99.90
18335;DHT22;9293;49.524;10.964;2023-11-21T14:52:22;10.20;99.90
18335;DHT22;9293;49.524;10.964;2023-11-21T14:55:04;10.20;99.90
18335;DHT22;9293;49.524;10.964;2023-11-21T14:57:51;10.10;99.90
18335;DHT22;9293;49.524;10.964;2023-11-21T15:00:20;10.10;99.90
18335;DHT22;9293;49.524;10.964;2023-11-21T15:03:04;10.00;99.90
18335;DHT22;9293;49.524;10.964;2023-11-21T15:05:33;9.90;99.90
18335;DHT22;9293;49.524;10.964;2023-11-21T15:08:03;9.90;99.90
18335;DHT22;9293;49.524;10.964;2023-11-21T15:10:54;9.80;99.90
18335;DHT22;9293;49.524;10.964;2023-11-21T15:13:23;9.70;99.90
18335;DHT22;9293;49.524;10.964;2023-11-21T15:15:53;9.60;99.90
18335;DHT22;9293;49.524;10.964;2023-11-21T15:18:22;9.60;99.90
18335;DHT22;9293;49.524;10.964;2023-11-21T15:20:50;9.50;99.90
18335;DHT22;9293;49.524;10.964;2023-11-21T15:23:19;9.40;99.90
18335;DHT22;9293;49.524;10.964;2023-11-21T15:25:47;9.40;99.90
18335;DHT22;9293;49.524;10.964;2023-11-21T15:28:15;9.30;99.90
18335;DHT22;9293;49.524;10.964;2023-11-21T15:30:45;9.30;99.90
18335;DHT22;9293;49.524;10.964;2023-11-21T15:33:17;9.20;99.90
18335;DHT22;9293;49.524;10.964;2023-11-21T15:35:45;9.20;99.90
18335;DHT22;9293;49.524;10.964;2023-11-21T15:38:14;9.20;99.90
18335;DHT22;9293;49.524;10.964;2023-11-21T15:40:42;9.20;99.90
18335;DHT22;9293;49.524;10.964;2023-11-21T15:43:11;9.10;99.90
18335;DHT22;9293;49.524;10.964;2023-11-21T15:45:40;9.10;99.90
18335;DHT22;9293;49.524;10.964;2023-11-21T15:48:08;9.00;99.90
18335;DHT22;9293;49.524;10.964;2023-11-21T15:50:38;8.90;99.90
18335;DHT22;9293;49.524;10.964;2023-11-21T15:53:06;8.90;99.90
18335;DHT22;9293;49.524;10.964;2023-11-21T15:55:35;8.90;99.90
18335;DHT22;9293;49.524;10.964;2023-11-21T15:58:10;8.80;99.90
18335;DHT22;9293;49.524;10.964;2023-11-21T16:00:38;8.90;99.90
18335;DHT22;9293;49.524;10.964;2023-11-21T16:03:07;8.90;99.90
18335;DHT22;9293;49.524;10.964;2023-11-21T16:05:37;8.80;99.90
18335;DHT22;9293;49.524;10.964;2023-11-21T16:08:06;8.90;99.90
18335;DHT22;9293;49.524;10.964;2023-11-21T16:10:34;8.90;99.90